Time;durP1;ratioP1;P1;durP2;ratioP2;P2;SDS_P1;SDS_P2;PMS_P1;PMS_P2;Temp;Humidity;BMP_temperature;BMP_pressure;BME280_temperature;BME280_humidity;BME280_pressure;Samples;Min_cycle;Max_cycle;Signal;HPM_P1;HPM_P2
2022/10/16 00:00:42;;;;;;;55.88;37.25;;;;;;;13.03;100.00;101149.09;5026656;28;20117;-86
2022/10/16 00:03:09;;;;;;;50.38;37.72;;;;;;;13.00;100.00;101154.63;5021833;28;20045;-86
2022/10/16 00:05:40;;;;;;;47.97;36.30;;;;;;;13.02;100.00;101157.91;5024229;28;20540;-85
2022/10/16 00:08:07;;;;;;;48.95;36.20;;;;;;;13.02;100.00;101147.44;5026653;28;20083;-86
2022/10/16 00:10:32;;;;;;;53.22;37.30;;;;;;;13.06;100.00;101151.44;5026487;28;20389;-85
2022/10/16 00:12:58;;;;;;;48.50;35.65;;;;;;;13.02;100.00;101155.31;5024094;28;20115;-84
2022/10/16 00:15:23;;;;;;;49.00;35.63;;;;;;;13.05;100.00;101162.88;5034459;28;20041;-85
2022/10/16 00:17:49;;;;;;;45.80;33.65;;;;;;;13.06;100.00;101160.09;5025035;28;20114;-85
2022/10/16 00:20:14;;;;;;;48.88;34.67;;;;;;;13.11;100.00;101162.28;5026094;28;20347;-84
2022/10/16 00:22:40;;;;;;;47.45;34.53;;;;;;;13.16;100.00;101160.09;5026890;28;20507;-84
2022/10/16 00:25:05;;;;;;;49.97;35.13;;;;;;;13.15;100.00;101155.81;5025989;28;20033;-85
2022/10/16 00:27:31;;;;;;;46.00;33.90;;;;;;;13.17;100.00;101157.34;5024477;28;20075;-84
2022/10/16 00:29:56;;;;;;;44.92;33.33;;;;;;;13.22;100.00;101154.28;5024902;28;20064;-85
2022/10/16 00:32:22;;;;;;;48.95;34.15;;;;;;;13.25;100.00;101159.22;5024489;28;20095;-85
2022/10/16 00:34:47;;;;;;;43.30;33.20;;;;;;;13.25;100.00;101161.81;5024475;28;20040;-84
2022/10/16 00:37:13;;;;;;;47.45;34.15;;;;;;;13.28;100.00;101161.53;5025498;28;20423;-84
2022/10/16 00:39:38;;;;;;;48.65;34.50;;;;;;;13.28;100.00;101166.78;5024944;28;20037;-86
2022/10/16 00:42:04;;;;;;;48.10;34.80;;;;;;;13.24;100.00;101170.66;5028969;28;20452;-85
2022/10/16 00:44:55;;;;;;;53.38;35.75;;;;;;;13.17;100.00;101166.97;5017747;28;20041;-85
2022/10/16 00:47:44;;;;;;;49.30;35.15;;;;;;;13.11;100.00;101170.13;5039814;28;20040;-85
2022/10/16 00:50:23;;;;;;;49.13;35.45;;;;;;;13.08;100.00;101175.66;5062921;28;20044;-85
2022/10/16 00:52:51;;;;;;;49.47;34.15;;;;;;;13.04;100.00;101174.28;5060187;28;20124;-84
2022/10/16 00:55:17;;;;;;;53.55;36.88;;;;;;;13.02;100.00;101176.22;5052651;28;20108;-85
2022/10/16 00:57:43;;;;;;;49.88;35.58;;;;;;;13.00;100.00;101176.38;5045400;28;20037;-85
2022/10/16 01:00:11;;;;;;;49.55;35.75;;;;;;;13.02;100.00;101173.63;5044232;28;20028;-85
2022/10/16 01:02:36;;;;;;;52.35;35.97;;;;;;;13.01;100.00;101179.81;5044813;28;20039;-85
2022/10/16 01:05:02;;;;;;;50.17;34.95;;;;;;;12.99;100.00;101179.13;5044965;28;20029;-85
2022/10/16 01:07:52;;;;;;;49.50;34.50;;;;;;;12.99;100.00;101179.13;5043580;28;20052;-85
2022/10/16 01:10:20;;;;;;;48.05;33.28;;;;;;;13.02;100.00;101178.84;5041977;28;20063;-85
2022/10/16 01:13:03;;;;;;;44.72;32.95;;;;;;;12.90;100.00;101194.69;5043728;28;20051;-85
2022/10/16 01:15:29;;;;;;;48.92;33.50;;;;;;;12.79;100.00;101192.25;5044076;28;20036;-85
2022/10/16 01:18:11;;;;;;;47.08;33.90;;;;;;;12.67;100.00;101185.56;5044485;28;20048;-85
2022/10/16 01:20:45;;;;;;;51.65;35.70;;;;;;;12.57;100.00;101195.19;5046947;28;20033;-85
2022/10/16 01:23:20;;;;;;;52.15;35.25;;;;;;;12.46;100.00;101193.53;5043763;28;20031;-85
2022/10/16 01:26:08;;;;;;;53.70;37.13;;;;;;;12.47;100.00;101189.97;5044739;28;20222;-85
2022/10/16 01:28:45;;;;;;;50.63;36.67;;;;;;;12.64;100.00;101191.06;5044167;28;20045;-85
2022/10/16 01:31:14;;;;;;;50.28;34.00;;;;;;;12.77;100.00;101196.78;5044096;28;20033;-84
2022/10/16 01:33:47;;;;;;;48.60;34.30;;;;;;;12.87;100.00;101194.97;5040637;28;20087;-85
2022/10/16 01:36:21;;;;;;;46.03;34.42;;;;;;;12.90;100.00;101202.53;5046102;28;20032;-85
2022/10/16 01:38:51;;;;;;;47.95;35.33;;;;;;;12.93;100.00;101197.03;5018876;28;20550;-86
2022/10/16 01:41:30;;;;;;;49.05;34.78;;;;;;;12.88;100.00;101194.03;5044840;28;20400;-86
2022/10/16 01:44:22;;;;;;;56.13;35.47;;;;;;;12.83;100.00;101198.84;5039264;28;20057;-86
2022/10/16 01:46:51;;;;;;;47.10;34.20;;;;;;;12.79;100.00;101196.66;5023008;28;20041;-86
2022/10/16 01:49:18;;;;;;;51.15;35.92;;;;;;;12.78;100.00;101203.66;5041765;28;20032;-85
2022/10/16 01:51:49;;;;;;;49.20;35.42;;;;;;;12.78;100.00;101198.44;5044952;28;20029;-85
2022/10/16 01:54:17;;;;;;;48.83;34.78;;;;;;;12.75;100.00;101206.59;5043299;28;20086;-86
2022/10/16 01:56:43;;;;;;;52.70;34.90;;;;;;;12.75;100.00;101203.97;5044893;28;20130;-85
2022/10/16 01:59:19;;;;;;;46.08;34.22;;;;;;;12.72;100.00;101206.88;5029359;28;20041;-86
2022/10/16 02:01:51;;;;;;;53.03;35.22;;;;;;;12.71;100.00;101199.16;5044576;28;20052;-86
2022/10/16 02:04:29;;;;;;;52.28;37.05;;;;;;;12.68;100.00;101199.44;5044477;28;20073;-86
2022/10/16 02:06:55;;;;;;;51.75;34.97;;;;;;;12.69;100.00;101203.72;5038531;28;20392;-85
2022/10/16 02:09:21;;;;;;;47.53;34.38;;;;;;;12.71;100.00;101205.22;5044783;28;20049;-85
2022/10/16 02:11:46;;;;;;;47.45;34.25;;;;;;;12.73;100.00;101203.28;5044880;28;20053;-85
2022/10/16 02:14:12;;;;;;;46.25;33.05;;;;;;;12.68;100.00;101208.13;5029385;28;20448;-86
2022/10/16 02:16:43;;;;;;;48.63;34.15;;;;;;;12.62;100.00;101211.28;5025690;28;20029;-86
2022/10/16 02:19:10;;;;;;;49.22;34.78;;;;;;;12.59;100.00;101206.34;5026652;28;20110;-86
2022/10/16 02:21:51;;;;;;;45.40;33.97;;;;;;;12.59;100.00;101214.19;5045746;28;20128;-85
2022/10/16 02:24:36;;;;;;;52.05;37.35;;;;;;;12.56;100.00;101209.22;5028146;28;20342;-86
2022/10/16 02:27:24;;;;;;;54.60;35.80;;;;;;;12.52;100.00;101218.31;5047619;28;20287;-85
2022/10/16 02:29:58;;;;;;;45.83;34.35;;;;;;;12.58;100.00;101212.53;5049101;28;20311;-86
2022/10/16 02:32:30;;;;;;;51.45;36.05;;;;;;;12.56;100.00;101211.84;5030599;28;20040;-85
2022/10/16 02:34:58;;;;;;;53.08;34.67;;;;;;;12.54;100.00;101217.22;5046343;28;20037;-86
2022/10/16 02:37:25;;;;;;;52.15;36.42;;;;;;;12.52;100.00;101213.91;5034405;28;20052;-85
2022/10/16 02:39:51;;;;;;;50.78;37.15;;;;;;;12.52;100.00;101213.06;5046937;28;20093;-86
2022/10/16 02:42:18;;;;;;;51.03;36.50;;;;;;;12.51;100.00;101227.13;5359703;22;20061;-87
2022/10/16 02:44:44;;;;;;;53.17;36.88;;;;;;;12.50;100.00;101220.22;5028717;28;20645;-86
2022/10/16 02:47:09;;;;;;;51.50;35.60;;;;;;;12.47;100.00;101221.34;5043395;28;20017;-86
2022/10/16 02:49:35;;;;;;;51.97;36.95;;;;;;;12.47;100.00;101228.34;5056243;28;20077;-86
2022/10/16 02:52:00;;;;;;;52.70;36.45;;;;;;;12.45;100.00;101232.88;5055567;28;20020;-86
2022/10/16 02:54:25;;;;;;;57.38;38.42;;;;;;;12.43;100.00;101230.41;5030691;28;20033;-85
2022/10/16 02:56:51;;;;;;;54.65;37.25;;;;;;;12.44;100.00;101226.84;5028317;28;20492;-85
2022/10/16 02:59:17;;;;;;;53.65;37.30;;;;;;;12.44;100.00;101223.41;5028627;28;20025;-85
2022/10/16 03:01:42;;;;;;;51.85;36.40;;;;;;;12.48;100.00;101222.16;5028260;28;20511;-85
2022/10/16 03:04:07;;;;;;;50.25;36.38;;;;;;;12.48;100.00;101224.78;5029716;28;20043;-85
2022/10/16 03:06:33;;;;;;;56.85;36.05;;;;;;;12.50;100.00;101225.47;5029779;28;20048;-85
2022/10/16 03:08:58;;;;;;;51.60;36.05;;;;;;;12.51;100.00;101229.72;5030053;28;20128;-85
2022/10/16 03:11:24;;;;;;;53.85;37.05;;;;;;;12.47;100.00;101221.34;5029901;28;20128;-82
2022/10/16 03:13:49;;;;;;;52.95;36.85;;;;;;;12.45;100.00;101217.22;5055559;28;20041;-85
2022/10/16 03:16:15;;;;;;;55.17;36.47;;;;;;;12.43;100.00;101224.34;5051564;28;20048;-86
2022/10/16 03:18:40;;;;;;;51.75;35.72;;;;;;;12.39;100.00;101225.59;5036503;28;20033;-85
2022/10/16 03:21:06;;;;;;;48.90;35.45;;;;;;;12.30;100.00;101225.44;5029440;28;20511;-86
2022/10/16 03:23:31;;;;;;;51.22;36.10;;;;;;;12.21;100.00;101228.91;5029220;28;20484;-87
2022/10/16 03:25:56;;;;;;;51.75;35.58;;;;;;;12.12;100.00;101216.66;5027679;28;20437;-87
2022/10/16 03:28:22;;;;;;;49.72;34.28;;;;;;;12.10;100.00;101223.81;5029368;28;20484;-85
2022/10/16 03:30:47;;;;;;;49.13;35.67;;;;;;;12.09;100.00;101219.53;5029260;28;20392;-85
2022/10/16 03:33:13;;;;;;;50.17;35.20;;;;;;;12.08;100.00;101223.13;5027128;28;20048;-85
2022/10/16 03:35:38;;;;;;;51.67;35.10;;;;;;;12.24;100.00;101226.03;5029270;28;20406;-85
2022/10/16 03:38:04;;;;;;;51.05;36.92;;;;;;;12.42;100.00;101225.31;5029547;28;20099;-85
2022/10/16 03:40:31;;;;;;;52.05;36.00;;;;;;;12.48;100.00;101222.16;5029217;28;20032;-85
2022/10/16 03:42:57;;;;;;;52.22;35.53;;;;;;;12.49;100.00;101229.88;5028641;28;20042;-84
2022/10/16 03:45:23;;;;;;;53.03;37.42;;;;;;;12.54;100.00;101226.84;5029211;28;20207;-85
2022/10/16 03:47:48;;;;;;;51.38;38.13;;;;;;;12.58;100.00;101229.03;5029160;28;20025;-85
2022/10/16 03:50:14;;;;;;;51.90;37.70;;;;;;;12.53;100.00;101225.19;5029091;28;20033;-85
2022/10/16 03:52:39;;;;;;;55.72;36.42;;;;;;;12.44;100.00;101224.22;5027330;28;20554;-84
2022/10/16 03:55:05;;;;;;;52.45;36.28;;;;;;;12.39;100.00;101230.81;5029172;28;20403;-84
2022/10/16 03:57:30;;;;;;;54.50;37.33;;;;;;;12.35;100.00;101222.44;5027153;28;20037;-85
2022/10/16 03:59:56;;;;;;;50.83;36.15;;;;;;;12.37;100.00;101230.13;5028439;28;20025;-84
2022/10/16 04:02:21;;;;;;;54.67;36.13;;;;;;;12.32;100.00;101227.09;5027233;28;20025;-85
2022/10/16 04:04:47;;;;;;;53.50;37.25;;;;;;;12.32;100.00;101229.72;5029128;28;20087;-84
2022/10/16 04:07:12;;;;;;;53.20;37.50;;;;;;;12.32;100.00;101227.94;5028816;28;20029;-84
2022/10/16 04:09:37;;;;;;;49.97;36.30;;;;;;;12.31;100.00;101231.50;5028510;28;20108;-84
2022/10/16 04:12:03;;;;;;;51.17;36.85;;;;;;;12.30;100.00;101228.06;5029026;28;20025;-85
2022/10/16 04:14:28;;;;;;;53.80;37.05;;;;;;;12.32;100.00;101225.31;5028646;28;20513;-86
2022/10/16 04:16:54;;;;;;;54.92;35.72;;;;;;;12.32;100.00;101219.25;5026943;28;20037;-85
2022/10/16 04:19:19;;;;;;;53.25;35.78;;;;;;;12.32;100.00;101219.25;5028538;28;20053;-87
2022/10/16 04:21:44;;;;;;;50.80;35.45;;;;;;;12.32;100.00;101221.88;5028427;28;20056;-84
2022/10/16 04:24:11;;;;;;;48.72;35.20;;;;;;;12.30;100.00;101220.22;5028095;28;20041;-85
2022/10/16 04:26:37;;;;;;;53.50;36.45;;;;;;;12.30;100.00;101216.78;5026620;28;20500;-85
2022/10/16 04:29:02;;;;;;;54.40;36.78;;;;;;;12.29;100.00;101217.75;5026779;28;20388;-84
2022/10/16 04:31:27;;;;;;;49.95;35.30;;;;;;;12.26;100.00;101213.66;5028127;28;20033;-86
2022/10/16 04:33:53;;;;;;;49.70;35.15;;;;;;;12.23;100.00;101216.53;5028150;28;20116;-86
2022/10/16 04:36:18;;;;;;;50.35;35.30;;;;;;;12.24;100.00;101212.97;5027026;28;20033;-85
2022/10/16 04:38:44;;;;;;;49.90;35.00;;;;;;;12.24;100.00;101218.19;5028090;28;20053;-86
2022/10/16 04:41:09;;;;;;;50.25;36.53;;;;;;;12.21;100.00;101218.47;5027720;28;20026;-85
2022/10/16 04:43:34;;;;;;;49.90;36.63;;;;;;;12.21;100.00;101222.84;5027109;28;20497;-87
2022/10/16 04:46:00;;;;;;;52.45;37.60;;;;;;;12.19;100.00;101217.78;5026522;28;20032;-87
2022/10/16 04:48:26;;;;;;;52.50;37.35;;;;;;;12.16;100.00;101220.66;5028050;28;20053;-85
2022/10/16 04:50:51;;;;;;;55.17;37.22;;;;;;;12.14;100.00;101216.53;5027822;28;20029;-87
2022/10/16 04:53:17;;;;;;;59.58;37.22;;;;;;;12.12;100.00;101215.84;5027798;28;20029;-86
2022/10/16 04:55:43;;;;;;;52.53;36.47;;;;;;;12.09;100.00;101211.72;5027579;28;20018;-85
2022/10/16 04:58:08;;;;;;;51.08;37.75;;;;;;;12.09;100.00;101214.31;5027971;28;20108;-85
2022/10/16 05:00:34;;;;;;;50.53;35.60;;;;;;;12.08;100.00;101220.50;5027723;28;20136;-85
2022/10/16 05:03:00;;;;;;;56.95;38.65;;;;;;;12.06;100.00;101211.97;5027512;28;20079;-85
2022/10/16 05:05:27;;;;;;;54.45;37.50;;;;;;;12.07;100.00;101218.84;5027613;28;20075;-85
2022/10/16 05:07:52;;;;;;;52.65;38.78;;;;;;;12.05;100.00;101209.50;5027610;28;20354;-85
2022/10/16 05:10:18;;;;;;;57.40;37.85;;;;;;;12.03;100.00;101211.41;5027735;28;20040;-85
2022/10/16 05:12:44;;;;;;;54.85;37.30;;;;;;;12.02;100.00;101213.22;5026310;28;20053;-86
2022/10/16 05:15:09;;;;;;;52.20;37.30;;;;;;;12.01;100.00;101219.41;5027381;28;20087;-86
2022/10/16 05:17:35;;;;;;;54.47;36.75;;;;;;;12.02;100.00;101215.00;5027528;28;20021;-85
2022/10/16 05:20:00;;;;;;;54.58;36.97;;;;;;;12.00;100.00;101222.97;5027837;28;20030;-87
2022/10/16 05:22:25;;;;;;;53.30;37.50;;;;;;;12.01;100.00;101224.63;5027533;28;20086;-86
2022/10/16 05:24:51;;;;;;;52.10;36.22;;;;;;;12.03;100.00;101222.69;5025870;28;20072;-85
2022/10/16 05:27:19;;;;;;;54.38;37.17;;;;;;;12.06;100.00;101232.03;5025772;28;20021;-86
2022/10/16 05:29:46;;;;;;;54.25;37.45;;;;;;;12.06;100.00;101230.25;5027645;28;20092;-87
2022/10/16 05:32:13;;;;;;;52.70;37.75;;;;;;;12.08;100.00;101230.13;5027536;28;20220;-85
2022/10/16 05:34:39;;;;;;;50.47;36.15;;;;;;;12.09;100.00;101232.59;5033606;28;20029;-85
2022/10/16 05:37:04;;;;;;;53.55;37.05;;;;;;;12.08;100.00;101240.56;5041072;28;20041;-85
2022/10/16 05:39:30;;;;;;;50.22;35.53;;;;;;;12.06;100.00;101238.09;5028459;28;20025;-84
2022/10/16 05:41:55;;;;;;;54.28;37.83;;;;;;;12.05;100.00;101231.22;5025670;28;20427;-85
2022/10/16 05:44:21;;;;;;;56.70;37.15;;;;;;;12.08;100.00;101241.41;5027449;28;20029;-85
2022/10/16 05:46:46;;;;;;;55.78;37.15;;;;;;;12.07;100.00;101241.53;5026976;28;20429;-85
2022/10/16 05:49:12;;;;;;;52.17;36.35;;;;;;;12.08;100.00;101243.19;5027145;28;20045;-84
2022/10/16 05:51:37;;;;;;;50.85;34.53;;;;;;;12.06;100.00;101238.09;5027163;28;20029;-85
2022/10/16 05:54:03;;;;;;;50.97;35.83;;;;;;;12.11;100.00;101240.31;5025635;28;20112;-84
2022/10/16 05:56:28;;;;;;;55.05;35.83;;;;;;;12.11;100.00;101243.75;5032065;28;20032;-85
2022/10/16 05:58:54;;;;;;;52.17;36.78;;;;;;;12.12;100.00;101245.41;5031210;28;20459;-85
2022/10/16 06:01:23;;;;;;;52.22;37.08;;;;;;;12.14;100.00;101251.31;5030962;28;20041;-85
2022/10/16 06:03:51;;;;;;;51.35;35.70;;;;;;;12.15;100.00;101241.69;5031046;28;20497;-84
2022/10/16 06:06:21;;;;;;;51.97;35.65;;;;;;;12.16;100.00;101249.38;5030675;28;20028;-85
2022/10/16 06:08:48;;;;;;;54.08;36.53;;;;;;;12.18;100.00;101247.47;5030973;28;20500;-85
2022/10/16 06:11:21;;;;;;;47.67;34.83;;;;;;;12.22;100.00;101258.47;5029480;28;20075;-84
2022/10/16 06:13:56;;;;;;;52.97;36.15;;;;;;;12.21;100.00;101257.66;5031798;28;20029;-84
2022/10/16 06:16:23;;;;;;;56.22;36.47;;;;;;;12.23;100.00;101258.34;5030640;28;20022;-85
2022/10/16 06:18:51;;;;;;;51.10;37.13;;;;;;;12.25;100.00;101264.25;5030690;28;20155;-86
2022/10/16 06:21:24;;;;;;;53.60;36.35;;;;;;;12.29;100.00;101270.84;5029394;28;20021;-85
2022/10/16 06:23:50;;;;;;;53.75;36.60;;;;;;;12.34;100.00;101277.44;5030790;28;20037;-85
2022/10/16 06:26:18;;;;;;;52.45;35.95;;;;;;;12.35;100.00;101284.31;5029149;28;20018;-86
2022/10/16 06:28:44;;;;;;;46.13;34.70;;;;;;;12.37;100.00;101288.44;5029110;28;20395;-85
2022/10/16 06:31:11;;;;;;;52.72;36.65;;;;;;;12.42;100.00;101298.50;5030464;28;20128;-85
2022/10/16 06:33:37;;;;;;;52.25;36.22;;;;;;;12.44;100.00;101305.25;5030140;28;20075;-85
2022/10/16 06:36:11;;;;;;;48.05;35.90;;;;;;;12.46;100.00;101311.16;5030006;28;20057;-85
2022/10/16 06:38:37;;;;;;;53.38;35.53;;;;;;;12.42;100.00;101319.41;5030116;28;20033;-86
2022/10/16 06:41:05;;;;;;;50.85;35.05;;;;;;;12.39;100.00;101323.13;5030362;28;20045;-86
2022/10/16 06:43:37;;;;;;;49.83;34.28;;;;;;;12.38;100.00;101325.88;5030333;28;20056;-86
2022/10/16 06:46:04;;;;;;;49.17;34.92;;;;;;;12.39;100.00;101330.13;5029819;28;20258;-86
2022/10/16 06:48:30;;;;;;;54.83;36.10;;;;;;;12.35;100.00;101332.19;5030139;28;20036;-86
2022/10/16 06:51:00;;;;;;;52.88;35.67;;;;;;;12.38;100.00;101336.31;5029872;28;20026;-86
2022/10/16 06:53:29;;;;;;;50.20;33.85;;;;;;;12.42;100.00;101338.53;5030156;28;20543;-86
2022/10/16 06:55:54;;;;;;;52.05;35.40;;;;;;;12.47;100.00;101336.34;5030136;28;20112;-86
2022/10/16 06:58:21;;;;;;;48.25;34.33;;;;;;;12.51;100.00;101344.72;5029764;28;20372;-86
2022/10/16 07:00:46;;;;;;;52.10;35.22;;;;;;;12.56;100.00;101342.53;5029502;28;20595;-85
2022/10/16 07:03:12;;;;;;;53.00;34.13;;;;;;;12.63;100.00;101348.88;5029848;28;20101;-86
2022/10/16 07:05:39;;;;;;;49.13;35.80;;;;;;;12.71;100.00;101358.66;5028970;28;20087;-84
2022/10/16 07:08:05;;;;;;;48.20;34.08;;;;;;;12.76;100.00;101359.88;5029374;28;20411;-85
2022/10/16 07:10:31;;;;;;;44.60;33.60;;;;;;;12.82;100.00;101367.19;5029865;28;20025;-85
2022/10/16 07:12:57;;;;;;;49.72;34.47;;;;;;;12.84;100.00;101365.25;5028651;28;20116;-85
2022/10/16 07:18:08;;;;;;;49.33;35.63;;;;;;;12.95;100.00;101372.97;5030101;28;20381;-85
2022/10/16 07:20:34;;;;;;;46.00;33.53;;;;;;;13.02;100.00;101377.66;5030550;28;20025;-86
2022/10/16 07:22:59;;;;;;;44.90;33.25;;;;;;;13.08;100.00;101382.34;5053074;28;20025;-86
2022/10/16 07:25:25;;;;;;;48.47;34.90;;;;;;;13.12;100.00;101387.16;5055367;28;20032;-85
2022/10/16 07:27:50;;;;;;;51.28;33.63;;;;;;;13.19;100.00;101392.69;5046033;28;20047;-85
2022/10/16 07:30:16;;;;;;;48.22;33.42;;;;;;;13.23;100.00;101396.69;5029231;28;20400;-85
2022/10/16 07:32:41;;;;;;;47.72;34.35;;;;;;;13.25;100.00;101399.97;5029741;28;20036;-86
2022/10/16 07:35:07;;;;;;;47.15;33.83;;;;;;;13.25;100.00;101402.56;5029348;28;20025;-87
2022/10/16 07:37:32;;;;;;;47.70;32.90;;;;;;;13.25;100.00;101405.19;5029343;28;20040;-87
2022/10/16 07:39:58;;;;;;;44.00;32.43;;;;;;;13.28;100.00;101403.13;5029156;28;20108;-86
2022/10/16 07:42:23;;;;;;;49.10;35.55;;;;;;;13.32;100.00;101406.28;5026628;28;20081;-86
2022/10/16 07:44:49;;;;;;;46.78;33.90;;;;;;;13.35;100.00;101406.00;5025536;28;20040;-85
2022/10/16 07:47:14;;;;;;;46.80;31.83;;;;;;;13.36;100.00;101407.66;5026309;28;20034;-86
2022/10/16 07:49:40;;;;;;;45.05;33.70;;;;;;;13.38;100.00;101410.16;5024555;28;20504;-85
2022/10/16 07:52:05;;;;;;;45.83;32.20;;;;;;;13.41;100.00;101413.31;5027575;28;20435;-85
2022/10/16 07:54:31;;;;;;;45.03;33.33;;;;;;;13.43;100.00;101424.47;5024949;28;20029;-85
2022/10/16 07:56:56;;;;;;;38.42;31.05;;;;;;;13.39;100.00;101415.25;5027521;28;20104;-86
2022/10/16 07:59:21;;;;;;;43.85;32.60;;;;;;;13.39;100.00;101415.25;5042938;28;20036;-84
2022/10/16 08:01:49;;;;;;;40.65;30.85;;;;;;;13.42;100.00;101414.97;5040467;28;20044;-86
2022/10/16 08:04:14;;;;;;;46.65;32.25;;;;;;;13.50;100.00;101414.28;5026877;28;20022;-83
2022/10/16 08:06:41;;;;;;;43.63;32.53;;;;;;;13.57;100.00;101417.97;5028385;28;20032;-82
2022/10/16 08:09:07;;;;;;;47.28;32.92;;;;;;;13.64;100.00;101423.50;5029141;28;20103;-83
2022/10/16 08:11:33;;;;;;;43.38;31.73;;;;;;;13.69;100.00;101421.28;5027280;28;20038;-83
2022/10/16 08:13:58;;;;;;;43.00;33.17;;;;;;;13.73;100.00;101417.38;5027293;28;20041;-84
2022/10/16 08:16:24;;;;;;;45.65;32.30;;;;;;;13.79;100.00;101424.66;5025644;28;20499;-83
2022/10/16 08:18:51;;;;;;;43.42;31.60;;;;;;;13.85;100.00;101430.16;5027228;28;20036;-85
2022/10/16 08:21:19;;;;;;;44.75;31.30;;;;;;;13.90;100.00;101432.38;5027394;28;20109;-85
2022/10/16 08:23:44;;;;;;;40.60;30.25;;;;;;;13.91;100.00;101432.22;5026988;28;20037;-86
2022/10/16 08:26:11;;;;;;;45.40;31.70;;;;;;;13.94;100.00;101434.56;5025663;28;20047;-87
2022/10/16 08:28:37;;;;;;;44.00;31.17;;;;;;;14.02;100.00;101433.03;5025680;28;20504;-86
2022/10/16 08:31:11;;;;;;;40.72;31.23;;;;;;;14.05;100.00;101430.13;5024498;28;20029;-87
2022/10/16 08:33:37;;;;;;;42.47;31.50;;;;;;;14.04;100.00;101429.28;5018237;28;20025;-87
2022/10/16 08:36:05;;;;;;;41.47;31.13;;;;;;;14.11;100.00;101435.59;5026821;28;20108;-87
2022/10/16 08:38:31;;;;;;;40.78;31.85;;;;;;;14.18;100.00;101430.59;5025054;28;20017;-87
2022/10/16 08:41:21;;;;;;;41.22;31.95;;;;;;;14.27;100.00;101429.72;5025596;28;20036;-86
2022/10/16 08:44:13;;;;;;;37.90;30.20;;;;;;;14.38;100.00;101431.34;5024838;28;20048;-87
2022/10/16 08:46:57;;;;;;;44.65;30.48;;;;;;;14.46;100.00;101434.09;5021448;28;20045;-87
2022/10/16 08:49:24;;;;;;;39.67;30.27;;;;;;;14.52;100.00;101434.34;5016405;28;20231;-87
2022/10/16 08:51:50;;;;;;;38.45;29.58;;;;;;;14.60;100.00;101431.00;5021638;28;20076;-87
2022/10/16 08:54:26;;;;;;;41.70;30.58;;;;;;;14.66;100.00;101435.63;5025773;28;20029;-87
2022/10/16 08:56:54;;;;;;;;;;;;;;;14.68;100.00;101436.28;5024953;28;20029;-85
2022/10/16 08:59:20;;;;;;;37.58;29.20;;;;;;;14.78;100.00;101444.94;5020067;28;19971;-86
2022/10/16 09:01:49;;;;;;;41.00;31.08;;;;;;;14.88;100.00;101447.50;5022317;28;20075;-87
2022/10/16 09:04:23;;;;;;;40.25;29.73;;;;;;;14.92;100.00;101446.22;5026249;28;20026;-87
2022/10/16 09:07:12;;;;;;;41.15;29.52;;;;;;;14.97;100.00;101445.78;5024421;28;20465;-87
2022/10/16 09:10:10;;;;;;;39.45;29.95;;;;;;;14.97;100.00;101445.78;5025144;28;20061;-86
2022/10/16 09:12:38;;;;;;;42.03;32.25;;;;;;;15.01;100.00;101449.75;5015641;28;20040;-86
2022/10/16 09:15:40;;;;;;;39.65;30.90;;;;;;;15.06;100.00;101455.38;5024564;28;20034;-87
2022/10/16 09:18:16;;;;;;;39.10;29.73;;;;;;;15.11;100.00;101450.53;5027371;28;20132;-86
2022/10/16 09:20:59;;;;;;;39.42;30.67;;;;;;;15.18;100.00;101454.16;5027468;28;20461;-87
2022/10/16 09:23:28;;;;;;;42.47;31.17;;;;;;;15.25;100.00;101453.41;5041343;28;20033;-85
2022/10/16 09:25:55;;;;;;;36.42;29.88;;;;;;;15.34;100.00;101462.19;5026587;28;20124;-87
2022/10/16 09:28:21;;;;;;;38.75;30.20;;;;;;;15.38;100.00;101465.34;5023404;28;20030;-86
2022/10/16 09:30:50;;;;;;;45.47;31.08;;;;;;;15.47;100.00;101457.38;5027672;28;20048;-86
2022/10/16 09:33:18;;;;;;;42.22;31.02;;;;;;;15.54;100.00;101455.81;5029927;28;20029;-87
2022/10/16 09:35:49;;;;;;;43.17;31.10;;;;;;;15.59;100.00;101458.00;5011730;28;20034;-86
2022/10/16 09:38:33;;;;;;;41.63;31.63;;;;;;;15.69;100.00;101456.09;5022979;28;20040;-86
2022/10/16 09:41:01;;;;;;;41.47;30.95;;;;;;;15.79;100.00;101461.25;5027202;28;20061;-87
2022/10/16 09:43:41;;;;;;;40.83;30.88;;;;;;;15.93;100.00;101463.31;5028682;28;20053;-86
2022/10/16 09:46:24;;;;;;;38.75;30.92;;;;;;;16.16;100.00;101467.03;5031373;28;20078;-86
2022/10/16 09:48:53;;;;;;;43.33;32.55;;;;;;;16.22;100.00;101469.03;5030149;28;20045;-86
2022/10/16 09:51:23;;;;;;;37.50;31.10;;;;;;;16.29;100.00;101471.06;5029481;28;20049;-86
2022/10/16 09:53:55;;;;;;;42.17;32.15;;;;;;;16.26;100.00;101470.38;5029792;28;20041;-86
2022/10/16 09:56:24;;;;;;;41.15;32.25;;;;;;;16.29;100.00;101464.00;5029818;28;20044;-86
2022/10/16 09:58:52;;;;;;;39.80;32.00;;;;;;;16.44;100.00;101470.31;5027488;28;20029;-86
2022/10/16 10:01:19;;;;;;;43.05;31.33;;;;;;;16.47;100.00;101466.53;5027093;28;20044;-87
2022/10/16 10:03:46;;;;;;;41.20;32.47;;;;;;;16.59;99.90;101465.25;5027946;28;20037;-86
2022/10/16 10:06:27;;;;;;;44.45;34.38;;;;;;;16.67;97.18;101462.69;5030017;28;20542;-86
2022/10/16 10:09:15;;;;;;;42.53;32.88;;;;;;;16.69;98.89;101465.97;5029397;28;20102;-86
2022/10/16 10:11:51;;;;;;;46.58;33.63;;;;;;;16.73;99.02;101463.84;5029708;28;20034;-86
2022/10/16 10:14:22;;;;;;;44.80;33.03;;;;;;;16.68;100.00;101459.06;5029852;28;20342;-86
2022/10/16 10:16:49;;;;;;;42.28;33.25;;;;;;;16.81;99.83;101459.44;5029196;28;20030;-85
2022/10/16 10:19:16;;;;;;;46.08;33.78;;;;;;;16.83;99.73;101461.91;5028313;28;20476;-87
2022/10/16 10:21:42;;;;;;;42.92;33.95;;;;;;;16.89;99.62;101456.81;5038679;28;20017;-87
2022/10/16 10:24:16;;;;;;;44.70;32.50;;;;;;;16.96;98.74;101461.44;5049380;28;20037;-87
2022/10/16 10:26:52;;;;;;;43.67;32.78;;;;;;;17.13;98.48;101463.91;5028116;28;20427;-87
2022/10/16 10:29:35;;;;;;;45.60;32.75;;;;;;;17.18;97.29;101453.72;5028259;28;20045;-86
2022/10/16 10:32:19;;;;;;;47.90;36.20;;;;;;;17.16;97.94;101457.50;5029728;28;20041;-86
2022/10/16 10:34:53;;;;;;;50.88;35.97;;;;;;;17.17;97.82;101452.06;5028415;28;20107;-87
2022/10/16 10:37:34;;;;;;;43.40;33.25;;;;;;;17.27;97.65;101449.28;5031402;28;20028;-87
2022/10/16 10:40:19;;;;;;;46.30;35.55;;;;;;;17.34;98.66;101450.28;5019635;28;20109;-87
2022/10/16 10:42:48;;;;;;;47.53;36.90;;;;;;;17.40;99.26;101441.72;5013508;28;20053;-86
2022/10/16 10:45:23;;;;;;;49.20;36.60;;;;;;;17.42;98.63;101437.09;5027456;28;20129;-86
2022/10/16 10:47:51;;;;;;;;;;;;;;;17.37;98.15;101442.03;5028274;28;20431;-87
2022/10/16 10:50:23;;;;;;;47.42;35.25;;;;;;;17.38;99.39;101432.34;5021922;28;19929;-87
2022/10/16 10:53:16;;;;;;;43.88;35.33;;;;;;;17.47;100.00;101433.97;5018511;28;20040;-87
2022/10/16 10:55:58;;;;;;;50.13;35.90;;;;;;;17.53;100.00;101426.22;5028833;28;20112;-87
2022/10/16 10:59:01;;;;;;;47.50;35.00;;;;;;;17.61;99.15;101427.19;5028173;28;20039;-87
2022/10/16 11:01:44;;;;;;;50.38;36.85;;;;;;;17.61;97.71;101427.19;5028057;28;20037;-87
2022/10/16 11:04:31;;;;;;;55.53;36.95;;;;;;;17.68;99.19;101436.09;5028283;28;20100;-87
2022/10/16 11:07:24;;;;;;;52.03;37.47;;;;;;;17.72;99.51;101427.69;5027540;28;20607;-87
2022/10/16 11:10:02;;;;;;;55.50;38.53;;;;;;;17.80;98.45;101424.22;5024614;28;20500;-87
2022/10/16 11:12:31;;;;;;;59.28;40.45;;;;;;;17.81;98.01;101423.25;5027954;28;20116;-87
2022/10/16 11:15:25;;;;;;;54.15;39.03;;;;;;;17.93;96.19;101421.91;5029646;28;20575;-87